Time;durP1;ratioP1;P1;durP2;ratioP2;P2;SDS_P1;SDS_P2;PMS_P1;PMS_P2;Temp;Humidity;BMP_temperature;BMP_pressure;BME280_temperature;BME280_humidity;BME280_pressure;Samples;Min_cycle;Max_cycle;Signal;HPM_P1;HPM_P2
2021/07/04 00:02:01;;;;;;;7.10;5.28;;;18.00;86.60;;;;;;5040222;28;20029;-75
2021/07/04 00:04:27;;;;;;;6.78;5.40;;;17.90;86.90;;;;;;5043422;28;20519;-73
2021/07/04 00:06:52;;;;;;;7.30;5.38;;;17.90;87.70;;;;;;5042153;28;20067;-73
2021/07/04 00:09:18;;;;;;;7.95;5.55;;;18.00;86.80;;;;;;5042517;28;20957;-73
2021/07/04 00:11:44;;;;;;;8.27;5.53;;;17.90;86.60;;;;;;5024513;28;20032;-74
2021/07/04 00:14:09;;;;;;;10.50;5.32;;;18.00;86.90;;;;;;5050693;28;20039;-73
2021/07/04 00:16:35;;;;;;;8.82;5.68;;;18.00;86.70;;;;;;5040134;28;20480;-73
2021/07/04 00:19:01;;;;;;;7.55;5.03;;;18.00;86.80;;;;;;5050996;28;20025;-73
2021/07/04 00:21:26;;;;;;;7.88;5.40;;;18.00;86.90;;;;;;5050311;28;20372;-73
2021/07/04 00:23:53;;;;;;;8.43;5.68;;;18.00;86.60;;;;;;5053715;28;20114;-73
2021/07/04 00:26:19;;;;;;;6.75;5.55;;;18.00;86.80;;;;;;5032221;28;20029;-74
2021/07/04 00:28:45;;;;;;;9.38;5.30;;;18.00;86.60;;;;;;5027689;28;20025;-75
2021/07/04 00:31:10;;;;;;;6.63;5.20;;;18.00;86.60;;;;;;5049075;28;20403;-74
2021/07/04 00:33:36;;;;;;;9.63;5.68;;;18.00;86.50;;;;;;5050742;28;20087;-76
2021/07/04 00:36:03;;;;;;;6.88;4.93;;;18.00;86.40;;;;;;5050648;28;20021;-72
2021/07/04 00:38:29;;;;;;;8.55;5.07;;;18.00;86.60;;;;;;5044743;28;20100;-72
2021/07/04 00:40:54;;;;;;;7.82;5.30;;;18.00;86.30;;;;;;5025760;28;20116;-72
2021/07/04 00:43:20;;;;;;;6.90;5.43;;;18.00;86.30;;;;;;5033975;28;20112;-73
2021/07/04 00:45:46;;;;;;;8.52;5.00;;;18.10;86.60;;;;;;5048971;28;20029;-74
2021/07/04 00:48:13;;;;;;;6.78;4.93;;;18.10;86.80;;;;;;5044144;28;20520;-73
2021/07/04 00:50:40;;;;;;;7.05;5.45;;;18.00;86.70;;;;;;5052457;28;20017;-74
2021/07/04 00:53:07;;;;;;;8.38;5.13;;;18.10;86.90;;;;;;5030347;28;20559;-74
2021/07/04 00:55:33;;;;;;;8.15;5.32;;;18.00;86.80;;;;;;5035198;28;20140;-73
2021/07/04 00:58:00;;;;;;;6.07;4.68;;;18.00;86.80;;;;;;5041674;28;20402;-74
2021/07/04 01:00:30;;;;;;;6.57;4.72;;;17.90;86.60;;;;;;5052283;28;20740;-74
2021/07/04 01:02:56;;;;;;;7.25;4.75;;;18.00;86.80;;;;;;5024573;28;20650;-73
2021/07/04 01:05:25;;;;;;;6.05;4.53;;;17.90;87.20;;;;;;5011188;28;20034;-74
2021/07/04 01:07:51;;;;;;;6.10;4.65;;;17.90;87.00;;;;;;5027771;28;20082;-75
2021/07/04 01:10:20;;;;;;;8.00;5.43;;;17.90;86.60;;;;;;5034730;28;20041;-73
2021/07/04 01:12:47;;;;;;;8.50;5.45;;;17.90;86.70;;;;;;5018549;28;20513;-74
2021/07/04 01:15:17;;;;;;;8.85;5.38;;;17.90;86.60;;;;;;5027422;28;20116;-74
2021/07/04 01:17:44;;;;;;;7.88;5.18;;;17.90;86.70;;;;;;5025945;28;20026;-74
2021/07/04 01:20:12;;;;;;;7.15;5.00;;;17.90;87.20;;;;;;5028848;28;20545;-74
2021/07/04 01:22:40;;;;;;;9.18;4.97;;;17.90;86.80;;;;;;5031499;28;20030;-74
2021/07/04 01:25:08;;;;;;;8.50;5.88;;;17.90;86.80;;;;;;5011301;28;20021;-74
2021/07/04 01:27:34;;;;;;;5.82;5.20;;;17.90;86.60;;;;;;5010375;28;20048;-74
2021/07/04 01:30:00;;;;;;;5.95;4.38;;;17.90;86.80;;;;;;5010972;28;20030;-74
2021/07/04 01:32:25;;;;;;;8.38;5.20;;;17.90;87.00;;;;;;5019404;28;20037;-75
2021/07/04 01:34:51;;;;;;;6.90;5.40;;;17.90;86.80;;;;;;5040288;28;20856;-75
2021/07/04 01:37:17;;;;;;;7.03;5.10;;;17.80;86.80;;;;;;5032129;28;20028;-73
2021/07/04 01:39:43;;;;;;;5.93;4.90;;;17.80;86.70;;;;;;5043701;28;20021;-74
2021/07/04 01:42:08;;;;;;;6.75;5.05;;;17.80;86.90;;;;;;5032635;28;20107;-74
2021/07/04 01:44:34;;;;;;;7.53;5.00;;;17.80;86.80;;;;;;5054646;28;20166;-73
2021/07/04 01:47:00;;;;;;;7.30;5.47;;;17.80;86.90;;;;;;5048060;28;20069;-75
2021/07/04 01:49:26;;;;;;;6.82;4.93;;;17.80;86.90;;;;;;5049860;28;20025;-73
2021/07/04 01:51:53;;;;;;;6.60;5.47;;;17.70;86.70;;;;;;5030759;28;20025;-75
2021/07/04 01:54:18;;;;;;;7.43;5.05;;;17.70;86.70;;;;;;5048263;28;20040;-73
2021/07/04 01:56:44;;;;;;;6.25;5.00;;;17.70;86.90;;;;;;5031474;28;20016;-74
2021/07/04 01:59:10;;;;;;;6.50;5.18;;;17.70;87.00;;;;;;5055730;28;20542;-73
2021/07/04 02:01:35;;;;;;;8.55;5.03;;;17.70;87.30;;;;;;5051637;28;20035;-74
2021/07/04 02:04:01;;;;;;;6.57;4.75;;;17.70;87.30;;;;;;5055790;28;20490;-74
2021/07/04 02:06:27;;;;;;;7.95;5.10;;;17.60;87.20;;;;;;5051898;28;20399;-75
2021/07/04 02:08:52;;;;;;;7.15;4.80;;;17.60;87.40;;;;;;5052371;28;20021;-73
2021/07/04 02:11:18;;;;;;;6.82;4.90;;;17.60;87.00;;;;;;5054597;28;20126;-74
2021/07/04 02:13:44;;;;;;;7.70;5.60;;;17.60;88.00;;;;;;5034867;28;20603;-73
2021/07/04 02:16:09;;;;;;;6.20;4.80;;;17.60;87.40;;;;;;5055610;28;20529;-74
2021/07/04 02:18:35;;;;;;;6.45;5.47;;;17.60;87.40;;;;;;5056283;28;20021;-73
2021/07/04 02:21:01;;;;;;;7.30;4.85;;;17.60;87.60;;;;;;5042393;28;20067;-75
2021/07/04 02:23:31;;;;;;;6.03;4.65;;;17.60;87.50;;;;;;5049721;28;20495;-74
2021/07/04 02:25:58;;;;;;;7.65;5.38;;;17.60;87.20;;;;;;5045393;28;20021;-74
2021/07/04 02:28:26;;;;;;;6.63;4.43;;;17.60;87.70;;;;;;5044253;28;20271;-75
2021/07/04 02:30:53;;;;;;;5.65;5.00;;;17.60;87.50;;;;;;5044791;28;20032;-74
2021/07/04 02:33:20;;;;;;;6.13;4.97;;;17.50;87.60;;;;;;5034476;28;20025;-75
2021/07/04 02:35:50;;;;;;;6.65;4.88;;;17.50;87.50;;;;;;5049988;28;20016;-75
2021/07/04 02:38:17;;;;;;;6.03;4.63;;;17.50;87.50;;;;;;5050617;28;20033;-74
2021/07/04 02:40:46;;;;;;;8.23;5.55;;;17.50;87.40;;;;;;5028829;28;20032;-74
2021/07/04 02:43:14;;;;;;;7.43;4.93;;;17.60;87.40;;;;;;5031645;28;20032;-75
2021/07/04 02:45:41;;;;;;;8.30;5.28;;;17.50;87.40;;;;;;5055001;28;20041;-74
2021/07/04 02:48:09;;;;;;;6.68;5.03;;;17.50;87.30;;;;;;5052095;28;20047;-73
2021/07/04 02:50:35;;;;;;;6.75;5.47;;;17.50;87.60;;;;;;5042600;28;20067;-74
2021/07/04 02:53:00;;;;;;;6.32;4.88;;;17.50;87.80;;;;;;5050215;28;20041;-74
2021/07/04 02:55:26;;;;;;;7.80;5.57;;;17.50;87.80;;;;;;5053229;28;20078;-74
2021/07/04 02:57:52;;;;;;;5.97;5.03;;;17.50;87.60;;;;;;5039268;28;20029;-73
2021/07/04 03:00:20;;;;;;;6.78;5.18;;;17.50;87.50;;;;;;5043261;28;20473;-74
2021/07/04 03:02:46;;;;;;;;;;;17.50;87.40;;;;;;5049123;28;20031;-73
2021/07/04 03:05:12;;;;;;;6.05;4.70;;;17.50;87.60;;;;;;5027499;28;20387;-74
2021/07/04 03:07:38;;;;;;;6.22;5.03;;;17.50;88.00;;;;;;5052619;28;20035;-73
2021/07/04 03:10:10;;;;;;;6.30;4.85;;;17.50;88.10;;;;;;5044956;28;20029;-74
2021/07/04 03:12:36;;;;;;;7.05;4.95;;;17.50;88.10;;;;;;5026854;28;20179;-73
2021/07/04 03:15:03;;;;;;;7.28;4.57;;;17.50;88.00;;;;;;5041311;28;20544;-74
2021/07/04 03:17:28;;;;;;;8.45;5.03;;;17.50;87.80;;;;;;5046534;28;22076;-73
2021/07/04 03:19:54;;;;;;;8.95;5.50;;;17.60;87.80;;;;;;5043462;28;20022;-74
2021/07/04 03:22:20;;;;;;;8.60;5.65;;;17.50;87.70;;;;;;5040060;28;20029;-74
2021/07/04 03:24:45;;;;;;;7.65;5.90;;;17.50;87.60;;;;;;5036302;28;20040;-74
2021/07/04 03:27:11;;;;;;;7.18;5.22;;;17.50;88.30;;;;;;5022890;28;20062;-74
2021/07/04 03:29:37;;;;;;;7.07;5.85;;;17.50;88.00;;;;;;5041215;28;20107;-75
2021/07/04 03:32:04;;;;;;;8.35;5.20;;;17.50;88.30;;;;;;5008181;28;20052;-75
2021/07/04 03:34:31;;;;;;;6.88;5.32;;;17.50;88.40;;;;;;5015246;28;20468;-75
2021/07/04 03:36:57;;;;;;;7.28;5.15;;;17.50;88.30;;;;;;5007666;28;20081;-74
2021/07/04 03:39:22;;;;;;;6.85;5.75;;;17.50;88.40;;;;;;5025047;28;20033;-75
2021/07/04 03:41:49;;;;;;;7.15;4.95;;;17.50;88.00;;;;;;5030111;28;20028;-74
2021/07/04 03:44:14;;;;;;;7.05;5.15;;;17.60;88.50;;;;;;5021893;28;20030;-75
2021/07/04 03:46:40;;;;;;;7.38;5.47;;;17.50;88.30;;;;;;4998043;28;20036;-74
2021/07/04 03:49:06;;;;;;;7.82;5.00;;;17.50;88.20;;;;;;5019073;28;20068;-75
2021/07/04 03:51:31;;;;;;;6.78;5.05;;;17.50;88.10;;;;;;5019841;28;20056;-75
2021/07/04 03:53:57;;;;;;;6.72;4.82;;;17.60;88.20;;;;;;4997442;28;20040;-74
2021/07/04 03:56:23;;;;;;;8.38;5.38;;;17.60;88.20;;;;;;5014736;28;20083;-75
2021/07/04 03:58:49;;;;;;;6.85;4.45;;;17.60;88.20;;;;;;5021989;28;20022;-75
2021/07/04 04:01:19;;;;;;;7.10;5.28;;;17.50;88.00;;;;;;5002892;28;20043;-75
2021/07/04 04:03:46;;;;;;;8.73;5.18;;;17.60;88.20;;;;;;5005339;28;20104;-75
2021/07/04 04:06:11;;;;;;;9.30;6.68;;;17.60;88.10;;;;;;5020168;28;20037;-75
2021/07/04 04:08:37;;;;;;;6.53;5.18;;;17.60;88.00;;;;;;5022526;28;20458;-75
2021/07/04 04:11:04;;;;;;;8.73;5.85;;;17.60;88.00;;;;;;5025061;28;20382;-75
2021/07/04 04:13:30;;;;;;;5.65;4.68;;;17.60;88.20;;;;;;5025836;28;20030;-76
2021/07/04 04:15:56;;;;;;;6.07;4.28;;;17.60;88.10;;;;;;5009614;28;20032;-75
2021/07/04 04:18:21;;;;;;;8.90;4.40;;;17.60;88.50;;;;;;5021776;28;20040;-75
2021/07/04 04:20:47;;;;;;;5.35;4.47;;;17.50;88.30;;;;;;5015230;28;20074;-75
2021/07/04 04:23:13;;;;;;;6.72;3.85;;;17.50;88.20;;;;;;5023465;28;20477;-75
2021/07/04 04:25:39;;;;;;;8.30;4.00;;;17.50;88.50;;;;;;5027490;28;20079;-75
2021/07/04 04:28:05;;;;;;;6.13;4.40;;;17.60;88.60;;;;;;5023284;28;20041;-75
2021/07/04 04:30:34;;;;;;;4.53;4.10;;;17.60;88.50;;;;;;5015471;28;20030;-75
2021/07/04 04:33:00;;;;;;;5.80;4.13;;;17.60;88.60;;;;;;5050293;28;20037;-75
2021/07/04 04:35:26;;;;;;;6.28;4.03;;;17.60;88.80;;;;;;5052640;28;20068;-75
2021/07/04 04:37:52;;;;;;;7.90;4.78;;;17.60;88.70;;;;;;5053496;28;20052;-75
2021/07/04 04:40:17;;;;;;;6.78;4.22;;;17.60;88.80;;;;;;5051511;28;20079;-75
2021/07/04 04:42:43;;;;;;;5.97;4.22;;;17.60;89.20;;;;;;5046126;28;20028;-75
2021/07/04 04:45:09;;;;;;;5.38;4.10;;;17.60;88.90;;;;;;5050793;28;20553;-75
2021/07/04 04:47:35;;;;;;;6.35;4.65;;;17.60;89.00;;;;;;5046266;28;20031;-75
2021/07/04 04:50:02;;;;;;;6.65;4.60;;;17.60;89.10;;;;;;5029236;28;20120;-76
2021/07/04 04:52:27;;;;;;;7.03;4.70;;;17.60;89.50;;;;;;5044254;28;20033;-75
2021/07/04 04:54:53;;;;;;;5.57;4.38;;;17.60;89.20;;;;;;5059301;28;20604;-75
2021/07/04 04:57:19;;;;;;;5.38;4.43;;;17.60;89.10;;;;;;5047898;28;20024;-75
2021/07/04 04:59:44;;;;;;;5.90;4.63;;;17.60;89.20;;;;;;5023391;28;20037;-75
2021/07/04 05:02:10;;;;;;;6.90;4.82;;;17.60;89.10;;;;;;5048674;28;20029;-75
2021/07/04 05:04:35;;;;;;;7.20;5.25;;;17.70;88.80;;;;;;5045535;28;20496;-75
2021/07/04 05:07:02;;;;;;;7.78;5.00;;;17.70;89.10;;;;;;5046338;28;20507;-75
2021/07/04 05:09:28;;;;;;;9.02;4.80;;;17.70;88.90;;;;;;5045152;28;20101;-75
2021/07/04 05:11:54;;;;;;;5.78;4.85;;;17.70;88.90;;;;;;5050793;28;20055;-75
2021/07/04 05:14:20;;;;;;;5.55;4.85;;;17.70;88.80;;;;;;5022652;28;20036;-75
2021/07/04 05:16:46;;;;;;;7.35;5.07;;;17.70;88.80;;;;;;5047562;28;20132;-74
2021/07/04 05:19:15;;;;;;;6.53;4.55;;;17.70;88.90;;;;;;5033753;28;20097;-75
2021/07/04 05:21:41;;;;;;;7.00;4.90;;;17.80;89.00;;;;;;5043473;28;20025;-75
2021/07/04 05:24:08;;;;;;;9.05;5.15;;;17.70;88.80;;;;;;5032752;28;20422;-75
2021/07/04 05:26:34;;;;;;;7.30;5.18;;;17.70;89.50;;;;;;5049923;28;20407;-75
2021/07/04 05:29:00;;;;;;;6.22;4.97;;;17.70;89.10;;;;;;5044679;28;20029;-74
2021/07/04 05:31:26;;;;;;;6.95;4.85;;;17.70;89.60;;;;;;5032606;28;20080;-75
2021/07/04 05:33:52;;;;;;;5.22;4.68;;;17.70;89.30;;;;;;5048053;28;20021;-75
2021/07/04 05:36:18;;;;;;;7.00;4.88;;;17.70;89.40;;;;;;5028471;28;20495;-76
2021/07/04 05:38:44;;;;;;;6.40;5.07;;;17.80;89.20;;;;;;5043329;28;20060;-76
2021/07/04 05:41:13;;;;;;;7.40;5.85;;;17.80;89.10;;;;;;5047926;28;20519;-76
2021/07/04 05:43:41;;;;;;;6.68;4.35;;;17.80;89.10;;;;;;5044667;28;20040;-76
2021/07/04 05:46:08;;;;;;;7.50;4.65;;;17.80;88.80;;;;;;5049111;28;20100;-76
2021/07/04 05:48:35;;;;;;;8.80;5.45;;;17.90;88.80;;;;;;5047579;28;20037;-76
2021/07/04 05:51:01;;;;;;;7.10;5.07;;;17.90;88.60;;;;;;5025160;28;20013;-75
2021/07/04 05:53:27;;;;;;;6.13;4.70;;;17.90;88.50;;;;;;5025357;28;20466;-75
2021/07/04 05:55:52;;;;;;;7.63;4.88;;;17.90;88.90;;;;;;5044950;28;20048;-75
2021/07/04 05:58:19;;;;;;;6.80;4.82;;;17.90;89.10;;;;;;5041390;28;20036;-76
2021/07/04 06:00:45;;;;;;;6.78;4.82;;;18.00;88.90;;;;;;5024110;28;20036;-76
2021/07/04 06:03:10;;;;;;;8.70;4.88;;;18.00;88.50;;;;;;5052347;28;20031;-76
2021/07/04 06:05:36;;;;;;;6.65;4.10;;;18.00;88.40;;;;;;5044141;28;20082;-76
2021/07/04 06:08:02;;;;;;;6.82;5.10;;;18.00;88.00;;;;;;5041974;28;20040;-75
2021/07/04 06:10:28;;;;;;;6.07;4.10;;;18.00;88.00;;;;;;5045131;28;20032;-76
2021/07/04 06:12:55;;;;;;;7.15;4.68;;;18.00;88.50;;;;;;5038314;28;21578;-75
2021/07/04 06:15:20;;;;;;;6.15;4.45;;;18.00;88.50;;;;;;5022490;28;20021;-76
2021/07/04 06:17:46;;;;;;;5.85;4.72;;;17.90;88.60;;;;;;5042349;28;20484;-75
2021/07/04 06:20:18;;;;;;;5.82;4.57;;;17.90;89.10;;;;;;5050043;28;20074;-76
2021/07/04 06:22:44;;;;;;;10.48;5.07;;;17.80;89.80;;;;;;5030608;28;20025;-75
2021/07/04 06:25:12;;;;;;;5.55;4.38;;;17.80;89.60;;;;;;5027463;28;20024;-74
2021/07/04 06:27:41;;;;;;;;;;;17.80;89.40;;;;;;5035572;28;20024;-76
2021/07/04 06:30:09;;;;;;;4.68;4.10;;;17.80;89.60;;;;;;5050188;28;19955;-75
2021/07/04 06:32:36;;;;;;;7.38;4.30;;;17.80;89.80;;;;;;5049650;28;20025;-76
2021/07/04 06:35:04;;;;;;;5.72;4.57;;;17.90;89.60;;;;;;5056145;28;20032;-75
2021/07/04 06:37:30;;;;;;;5.85;4.35;;;17.90;89.60;;;;;;5029488;28;20029;-75
2021/07/04 06:39:55;;;;;;;7.47;4.97;;;18.00;89.70;;;;;;5040766;28;20045;-75
2021/07/04 06:42:22;;;;;;;5.07;4.20;;;17.90;89.80;;;;;;5026732;28;20032;-74
2021/07/04 06:44:47;;;;;;;9.02;4.90;;;17.90;89.40;;;;;;5030466;28;20028;-75
2021/07/04 06:47:13;;;;;;;7.90;4.38;;;18.00;89.40;;;;;;5044066;28;20043;-75
2021/07/04 06:49:39;;;;;;;5.18;4.20;;;18.00;90.00;;;;;;5044903;28;20122;-74
2021/07/04 06:52:05;;;;;;;5.95;3.70;;;18.00;89.70;;;;;;5047834;28;20108;-75
2021/07/04 06:54:30;;;;;;;6.22;4.10;;;18.00;89.60;;;;;;5044369;28;20026;-75
2021/07/04 06:56:56;;;;;;;5.60;4.05;;;17.90;90.00;;;;;;5046335;28;20063;-75
2021/07/04 06:59:22;;;;;;;6.43;4.22;;;18.00;89.80;;;;;;5042937;28;20025;-74
2021/07/04 07:01:48;;;;;;;5.45;4.03;;;18.00;89.90;;;;;;5047302;28;20029;-75
2021/07/04 07:04:14;;;;;;;6.40;4.32;;;18.00;90.10;;;;;;5029571;28;20875;-75
2021/07/04 07:06:40;;;;;;;6.20;3.90;;;18.00;90.50;;;;;;5058992;28;20025;-75
2021/07/04 07:09:06;;;;;;;5.32;4.10;;;18.00;90.80;;;;;;5047182;28;20030;-75
2021/07/04 07:11:31;;;;;;;5.15;3.90;;;18.00;90.70;;;;;;5031301;28;20026;-75
2021/07/04 07:13:57;;;;;;;5.22;3.83;;;18.00;90.70;;;;;;5047129;28;20029;-75
2021/07/04 07:16:23;;;;;;;4.00;3.28;;;18.00;90.30;;;;;;5040494;28;20047;-75
2021/07/04 07:18:49;;;;;;;5.78;3.47;;;17.90;90.30;;;;;;5029757;28;20112;-74
2021/07/04 07:21:15;;;;;;;3.47;3.05;;;17.90;90.00;;;;;;5028362;28;20029;-76
2021/07/04 07:23:41;;;;;;;4.20;3.13;;;17.90;90.20;;;;;;5034291;28;20024;-75
2021/07/04 07:26:06;;;;;;;5.55;3.90;;;18.00;90.30;;;;;;5027526;28;20021;-75
2021/07/04 07:28:32;;;;;;;5.40;3.67;;;18.00;90.30;;;;;;5044143;28;20025;-75
2021/07/04 07:30:58;;;;;;;5.30;3.90;;;18.00;90.00;;;;;;5047547;28;20067;-74
2021/07/04 07:33:24;;;;;;;4.45;3.47;;;18.00;89.40;;;;;;5047156;28;20021;-76
2021/07/04 07:35:51;;;;;;;5.07;3.40;;;18.00;90.00;;;;;;5051092;28;20029;-75
2021/07/04 07:38:18;;;;;;;5.53;3.75;;;18.10;90.10;;;;;;5030337;28;20143;-74
2021/07/04 07:40:44;;;;;;;4.40;3.58;;;18.10;90.00;;;;;;5028331;28;20412;-75
2021/07/04 07:43:10;;;;;;;3.65;3.13;;;18.10;90.00;;;;;;5021429;28;20075;-75
2021/07/04 07:45:36;;;;;;;4.28;3.50;;;18.20;90.00;;;;;;5030933;28;20029;-75
2021/07/04 07:48:03;;;;;;;4.03;3.13;;;18.30;90.10;;;;;;5045356;28;20032;-75
2021/07/04 07:50:29;;;;;;;3.65;3.25;;;18.30;90.00;;;;;;5044604;28;20021;-75
2021/07/04 07:52:54;;;;;;;4.03;3.10;;;18.30;89.50;;;;;;5031855;28;20021;-75
2021/07/04 07:55:21;;;;;;;5.55;3.47;;;18.40;89.20;;;;;;5041389;28;20071;-75
2021/07/04 07:57:47;;;;;;;3.70;3.30;;;18.40;89.20;;;;;;5044321;28;20029;-75
2021/07/04 08:00:14;;;;;;;4.03;2.78;;;18.50;89.10;;;;;;5047537;28;20120;-75
2021/07/04 08:02:41;;;;;;;3.67;3.13;;;18.50;88.40;;;;;;5027530;28;20033;-75
2021/07/04 08:05:07;;;;;;;3.20;2.83;;;18.50;87.70;;;;;;5023747;28;20037;-75
2021/07/04 08:07:36;;;;;;;3.50;3.17;;;18.50;86.90;;;;;;5028684;28;20033;-75
2021/07/04 08:10:06;;;;;;;2.95;2.65;;;18.60;87.40;;;;;;5024110;28;20024;-75
2021/07/04 08:12:31;;;;;;;4.57;3.13;;;18.60;87.20;;;;;;5044839;28;20025;-75
2021/07/04 08:14:57;;;;;;;2.88;2.50;;;18.70;86.40;;;;;;5044543;28;20033;-76
2021/07/04 08:17:23;;;;;;;3.15;2.28;;;18.70;86.40;;;;;;5041580;28;20029;-74
2021/07/04 08:19:49;;;;;;;2.65;2.45;;;18.70;86.50;;;;;;5044431;28;20100;-75
2021/07/04 08:22:15;;;;;;;2.65;2.45;;;18.70;86.50;;;;;;5028231;28;20025;-76
2021/07/04 08:24:40;;;;;;;2.55;2.35;;;18.70;85.90;;;;;;5027011;28;20031;-75
2021/07/04 08:27:06;;;;;;;4.35;2.70;;;18.70;87.40;;;;;;5039289;28;20396;-76
2021/07/04 08:29:32;;;;;;;3.55;1.92;;;18.80;87.30;;;;;;5038788;28;20040;-75
2021/07/04 08:31:58;;;;;;;5.22;2.60;;;18.90;86.80;;;;;;5023291;28;20052;-76
2021/07/04 08:34:23;;;;;;;3.78;2.10;;;18.90;86.30;;;;;;5044407;28;20188;-75
2021/07/04 08:36:53;;;;;;;2.33;2.13;;;19.00;85.90;;;;;;5017376;28;20047;-74
2021/07/04 08:39:19;;;;;;;3.35;2.20;;;19.10;85.20;;;;;;5035446;28;20080;-74
2021/07/04 08:41:45;;;;;;;2.45;2.22;;;19.10;86.20;;;;;;5043146;28;20024;-75
2021/07/04 08:44:11;;;;;;;2.67;2.30;;;19.10;85.20;;;;;;5027267;28;20373;-74
2021/07/04 08:46:41;;;;;;;2.75;1.92;;;19.10;84.90;;;;;;5043163;28;20027;-76
2021/07/04 08:49:08;;;;;;;2.65;2.22;;;19.10;83.90;;;;;;5050813;28;20024;-75
2021/07/04 08:51:34;;;;;;;3.63;2.63;;;19.20;85.60;;;;;;5035367;28;20024;-75
2021/07/04 08:54:00;;;;;;;2.60;2.30;;;19.40;83.30;;;;;;5049318;28;20106;-76
2021/07/04 08:56:25;;;;;;;2.90;2.50;;;19.40;84.00;;;;;;5050822;28;20025;-77
2021/07/04 08:58:51;;;;;;;2.80;2.10;;;19.50;84.60;;;;;;5050162;28;20028;-76
2021/07/04 09:01:20;;;;;;;2.53;2.10;;;19.50;83.50;;;;;;5038280;28;20033;-75
2021/07/04 09:03:51;;;;;;;2.20;2.00;;;19.60;82.70;;;;;;5048121;28;20029;-75
2021/07/04 09:06:42;;;;;;;3.45;2.38;;;19.60;82.30;;;;;;5056865;28;20029;-75
2021/07/04 09:09:26;;;;;;;3.10;1.85;;;19.60;81.80;;;;;;5043568;28;20401;-74
2021/07/04 09:12:00;;;;;;;2.53;2.20;;;19.70;81.60;;;;;;5047560;28;20081;-75
2021/07/04 09:14:36;;;;;;;2.47;2.15;;;19.80;82.50;;;;;;5048530;28;20546;-76
2021/07/04 09:17:04;;;;;;;3.55;2.08;;;19.70;81.50;;;;;;5039799;28;20052;-75
2021/07/04 09:19:30;;;;;;;2.55;2.35;;;19.60;81.40;;;;;;5039779;28;20067;-75
2021/07/04 09:22:10;;;;;;;2.38;2.17;;;19.70;82.20;;;;;;5056444;28;20033;-76
2021/07/04 09:24:44;;;;;;;3.17;2.10;;;19.70;80.90;;;;;;5043686;28;20029;-75
2021/07/04 09:27:15;;;;;;;2.17;2.00;;;19.80;81.90;;;;;;5053354;28;20571;-74
2021/07/04 09:29:52;;;;;;;2.45;2.25;;;19.80;83.20;;;;;;5055919;28;20037;-74
2021/07/04 09:32:22;;;;;;;3.25;2.72;;;19.80;82.30;;;;;;5045561;28;20131;-73
2021/07/04 09:35:13;;;;;;;3.30;2.50;;;19.80;81.70;;;;;;5046320;28;20116;-74
2021/07/04 09:37:44;;;;;;;3.20;2.83;;;19.70;81.90;;;;;;5048682;28;20029;-74
2021/07/04 09:40:26;;;;;;;3.05;2.58;;;19.70;81.70;;;;;;5047967;28;20029;-73
2021/07/04 09:42:54;;;;;;;2.35;2.15;;;19.80;81.20;;;;;;5045027;28;20033;-74
2021/07/04 09:45:21;;;;;;;2.20;2.00;;;19.70;81.90;;;;;;5047186;28;20028;-75
2021/07/04 09:47:56;;;;;;;2.35;2.15;;;19.80;80.60;;;;;;5041617;28;20033;-73
2021/07/04 09:50:22;;;;;;;2.30;2.10;;;19.80;81.10;;;;;;5047666;28;20031;-74
2021/07/04 09:53:04;;;;;;;2.47;2.08;;;19.90;81.30;;;;;;5043658;28;20032;-74
2021/07/04 09:55:30;;;;;;;2.40;2.10;;;20.00;82.30;;;;;;5026157;28;20028;-74
2021/07/04 09:58:00;;;;;;;2.53;1.90;;;20.00;81.00;;;;;;5030869;28;20021;-73
2021/07/04 10:00:28;;;;;;;2.53;2.08;;;19.90;79.20;;;;;;5015482;28;20020;-74
2021/07/04 10:03:13;;;;;;;2.83;2.53;;;20.00;78.70;;;;;;5020708;28;20048;-74
2021/07/04 10:05:41;;;;;;;2.67;2.00;;;20.00;80.80;;;;;;5023143;28;20033;-75
2021/07/04 10:08:26;;;;;;;2.45;1.92;;;19.90;78.70;;;;;;5021288;28;20095;-74
2021/07/04 10:11:13;;;;;;;2.25;1.85;;;20.00;79.40;;;;;;5044209;28;20029;-75
2021/07/04 10:13:42;;;;;;;3.35;2.15;;;20.00;78.70;;;;;;5027292;28;20040;-75
2021/07/04 10:16:12;;;;;;;2.15;1.95;;;20.10;79.70;;;;;;5022248;28;20033;-75
2021/07/04 10:18:40;;;;;;;2.72;2.17;;;20.10;78.80;;;;;;5025198;28;20393;-75
2021/07/04 10:21:06;;;;;;;;;;;20.20;78.10;;;;;;5037730;28;20022;-76
2021/07/04 10:23:32;;;;;;;2.53;2.30;;;20.20;78.80;;;;;;5027792;28;19920;-76
2021/07/04 10:26:00;;;;;;;2.53;2.30;;;20.30;80.40;;;;;;5019526;28;20021;-75
2021/07/04 10:28:31;;;;;;;;;;;20.30;78.30;;;;;;5024450;28;20163;-75
2021/07/04 10:31:00;;;;;;;3.22;2.40;;;20.40;77.20;;;;;;5021563;28;20008;-74
2021/07/04 10:33:33;;;;;;;3.70;2.75;;;20.40;77.40;;;;;;5025083;28;20548;-75
2021/07/04 10:36:04;;;;;;;2.67;2.40;;;20.50;76.90;;;;;;5024428;28;20122;-74
2021/07/04 10:38:47;;;;;;;2.70;2.30;;;20.50;76.70;;;;;;5030685;28;20075;-74
2021/07/04 10:41:25;;;;;;;2.35;2.15;;;20.60;76.90;;;;;;5022768;28;20111;-75
2021/07/04 10:44:01;;;;;;;3.25;2.05;;;20.70;76.90;;;;;;5024332;28;20179;-74
2021/07/04 10:46:56;;;;;;;3.00;2.10;;;20.70;76.80;;;;;;5022805;28;20116;-74
2021/07/04 10:49:32;;;;;;;4.22;2.25;;;20.70;74.00;;;;;;4969260;28;20110;-74
2021/07/04 10:52:11;;;;;;;3.03;2.60;;;20.70;75.50;;;;;;5020221;28;20388;-74
2021/07/04 10:54:40;;;;;;;4.55;2.35;;;20.70;75.70;;;;;;5026289;28;20079;-75
2021/07/04 10:57:28;;;;;;;2.83;2.50;;;20.80;75.30;;;;;;5036669;28;20176;-74
2021/07/04 11:00:00;;;;;;;3.45;2.28;;;20.80;75.60;;;;;;5023427;28;20025;-72
2021/07/04 11:02:40;;;;;;;2.83;2.40;;;20.80;75.80;;;;;;5022890;28;20029;-73
2021/07/04 11:05:10;;;;;;;2.95;2.60;;;20.80;76.20;;;;;;5020595;28;20032;-73
2021/07/04 11:07:55;;;;;;;3.00;2.40;;;20.80;76.40;;;;;;5026305;28;20071;-73
2021/07/04 11:10:35;;;;;;;3.20;2.45;;;20.90;76.00;;;;;;5017008;28;20116;-72
2021/07/04 11:13:31;;;;;;;2.75;2.28;;;21.00;75.90;;;;;;5024004;28;20100;-72
2021/07/04 11:16:05;;;;;;;3.15;2.85;;;21.10;76.30;;;;;;5024402;28;20103;-72
2021/07/04 11:18:43;;;;;;;2.85;2.35;;;21.20;73.30;;;;;;5027411;28;20100;-73
2021/07/04 11:21:10;;;;;;;2.55;2.35;;;21.20;73.70;;;;;;5024412;28;20109;-72
2021/07/04 11:23:36;;;;;;;3.13;2.65;;;21.30;73.30;;;;;;5030627;28;20083;-73
2021/07/04 11:26:07;;;;;;;3.22;2.80;;;21.30;73.90;;;;;;5023599;28;20057;-73
2021/07/04 11:28:35;;;;;;;3.22;2.50;;;21.40;72.50;;;;;;5028759;28;20056;-73
2021/07/04 11:31:07;;;;;;;3.28;2.88;;;21.40;71.60;;;;;;5015448;28;20025;-73
2021/07/04 11:33:42;;;;;;;4.57;2.90;;;21.50;74.60;;;;;;5018182;28;20071;-73
2021/07/04 11:36:20;;;;;;;2.95;2.55;;;21.60;73.40;;;;;;5030779;28;20044;-73
2021/07/04 11:38:59;;;;;;;4.80;2.80;;;21.70;72.20;;;;;;5041220;28;20025;-73
2021/07/04 11:41:38;;;;;;;3.45;2.83;;;21.70;71.90;;;;;;5023277;28;20025;-74
2021/07/04 11:44:10;;;;;;;3.28;2.85;;;21.70;72.40;;;;;;5028773;28;20033;-74
2021/07/04 11:46:39;;;;;;;3.10;2.80;;;21.80;70.70;;;;;;5025246;28;20101;-72
2021/07/04 11:49:21;;;;;;;3.67;2.83;;;21.70;70.80;;;;;;5029095;28;20029;-73
2021/07/04 11:51:51;;;;;;;2.95;2.70;;;21.60;69.70;;;;;;5019562;28;20058;-73
2021/07/04 11:54:19;;;;;;;3.17;2.63;;;21.60;70.40;;;;;;5022163;28;20037;-73
2021/07/04 11:59:57;;;;;;;3.15;2.85;;;21.50;70.00;;;;;;5020799;28;20045;-74
2021/07/04 12:02:23;;;;;;;3.17;2.80;;;21.50;70.10;;;;;;5035407;28;20041;-74
2021/07/04 12:04:49;;;;;;;3.58;2.65;;;21.60;72.30;;;;;;5017335;28;20493;-73
2021/07/04 12:07:20;;;;;;;3.25;2.95;;;21.70;74.10;;;;;;5016964;28;20034;-75
2021/07/04 12:09:49;;;;;;;4.93;2.90;;;21.80;72.60;;;;;;5017847;28;20112;-75
2021/07/04 12:12:19;;;;;;;3.35;2.67;;;21.70;69.90;;;;;;5020404;28;20033;-77
2021/07/04 12:15:05;;;;;;;3.92;2.78;;;21.60;70.40;;;;;;5020698;28;20044;-76
2021/07/04 12:17:45;;;;;;;3.25;2.72;;;21.70;69.60;;;;;;5023910;28;20397;-76
2021/07/04 12:20:38;;;;;;;3.60;2.78;;;21.50;67.60;;;;;;5022308;28;20030;-76
2021/07/04 12:23:06;;;;;;;4.15;3.10;;;21.60;69.90;;;;;;5025391;28;20040;-77
2021/07/04 12:25:36;;;;;;;4.00;2.85;;;21.60;68.10;;;;;;5032102;28;20022;-76
2021/07/04 12:28:19;;;;;;;2.90;2.60;;;21.60;70.20;;;;;;5030871;28;20497;-76
2021/07/04 12:30:47;;;;;;;3.75;2.70;;;21.70;70.20;;;;;;5028820;28;20111;-76
2021/07/04 12:33:15;;;;;;;3.17;2.63;;;21.80;69.30;;;;;;5028609;28;20025;-76
2021/07/04 12:35:55;;;;;;;3.38;2.85;;;21.80;70.40;;;;;;5028198;28;20109;-77
2021/07/04 12:38:33;;;;;;;3.40;2.92;;;21.90;67.90;;;;;;5032693;28;20100;-77
2021/07/04 12:41:13;;;;;;;3.03;2.70;;;21.90;69.10;;;;;;5030397;28;20028;-76
2021/07/04 12:43:43;;;;;;;2.83;2.60;;;22.00;67.10;;;;;;5028451;28;20032;-77
2021/07/04 12:46:24;;;;;;;4.85;2.60;;;21.90;67.50;;;;;;5031662;28;20044;-76
2021/07/04 12:48:51;;;;;;;4.93;3.00;;;22.00;70.20;;;;;;5021993;28;20017;-75
2021/07/04 12:51:27;;;;;;;;;;;22.00;70.30;;;;;;5023082;28;20030;-76
2021/07/04 12:53:54;;;;;;;2.45;2.25;;;22.10;69.80;;;;;;5032836;28;20299;-76
2021/07/04 12:56:25;;;;;;;4.75;2.80;;;22.00;69.10;;;;;;5028203;28;20552;-76
2021/07/04 12:58:53;;;;;;;2.85;2.42;;;22.00;66.80;;;;;;5027725;28;20025;-74